• Join FlightAware (Why Join?)
  • Login
  • US Flag 
02:22AM EDT


 

Airport Tracker/Info


-or-


 

Live Flight TrackerFlight Track Log ✈ N75ZM ✈ 08-Oct-2013 ✈ KFPR - KPDK

Flight Track Log - Related Links

Times and Time Zones

All times are in EDT time to prevent confusion due to time zone crossing. See the N75ZM flight status page for this flight to view local times or setup timezone preferences in your user account.

Time Position Orientation Groundspeed Altitude Reporting Facility
EDT Latitude Longitude Course Direction KTS MPH feet Rate Location/Type
12:13PM 27.4978 -80.3803 337° Northwest 169 194 900  Level Miami Center
12:14PM 27.4989 -80.4156 272° West 135 155 1,800 780 Climbing Miami Center
12:15PM 27.5000 -80.4506 272° West 120 138 2,500 720 Climbing Miami Center
12:16PM 27.5033 -80.4883 276° West 120 138 3,300 660 Climbing Miami Center
12:17PM 27.5367 -80.4964 348° North 109 125 3,900 600 Climbing Miami Center
12:18PM 27.7352 -80.5091 337° Northwest  Level Estimated
12:18PM 27.5758 -80.5069 347° North 133 153 4,500  Level Miami Center
12:19PM 27.6133 -80.5175 346° North 138 159 5,000 420 Climbing Miami Center
12:20PM 27.6528 -80.5258 349° North 138 159 5,400 420 Climbing Miami Center
12:21PM 27.6881 -80.5339 349° North 143 165 5,900 480 Climbing Miami Center
12:22PM 27.7275 -80.5447 346° North 143 165 6,400 480 Climbing Miami Center
12:23PM 27.7708 -80.5556 348° North 143 165 6,900 480 Climbing Miami Center
12:24PM 27.8103 -80.5636 350° North 143 165 7,400 480 Climbing Miami Center
12:26PM 27.9000 -80.5833 349° North 143 165 8,500 420 Climbing Orlando TRACON
12:27PM 27.9333 -80.6000 336° Northwest 137 158 8,900 300 Climbing Orlando TRACON
12:28PM 27.9833 -80.6000 360° North 142 163 9,200 120 Climbing Orlando TRACON
12:29PM 28.0167 -80.6167 336° Northwest 162 186 9,200  Level Orlando TRACON
12:30PM 28.0667 -80.6333 344° North 163 188 9,200  Level Orlando TRACON
12:31PM 28.1167 -80.6333 360° North 168 193 9,200  Level Orlando TRACON
12:32PM 28.1500 -80.6500 336° Northwest 156 180 9,200  Level Orlando TRACON
12:33PM 28.1833 -80.6667 336° Northwest 166 191 9,200 -60 Level Orlando TRACON
12:34PM 28.2333 -80.6833 344° North 166 191 9,100 -60 Descending Orlando TRACON
12:35PM 28.2667 -80.7000 336° Northwest 166 191 9,100  Level Orlando TRACON
12:36PM 28.3167 -80.7167 344° North 165 190 9,200  Climbing Orlando TRACON
12:37PM 28.3667 -80.7333 344° North 167 192 9,100  Descending Orlando TRACON
12:38PM 28.4000 -80.7500 336° Northwest 164 189 9,200  Climbing Orlando TRACON
12:39PM 28.4500 -80.7667 344° North 162 186 9,100 -60 Descending Orlando TRACON
12:40PM 28.4833 -80.7833 336° Northwest 161 185 9,100  Level Orlando TRACON
12:41PM 28.5333 -80.8000 344° North 164 189 9,100  Level Orlando TRACON
12:42PM 28.5833 -80.8167 344° North 160 184 9,200  Climbing Orlando TRACON
12:43PM 28.6167 -80.8333 336° Northwest 161 185 9,100  Descending Orlando TRACON
12:44PM 28.6500 -80.8500 336° Northwest 159 183 9,200  Climbing Orlando TRACON
12:45PM 28.7000 -80.8667 344° North 156 180 9,200 -60 Level Orlando TRACON
12:46PM 28.7333 -80.8833 336° Northwest 155 178 9,100 -60 Descending Orlando TRACON
12:48PM 28.8028 -80.9261 332° Northwest 157 181 9,100  Level Jacksonville Center
12:49PM 28.8447 -80.9419 342° North 157 181 9,100  Level Jacksonville Center
12:50PM 28.8844 -80.9575 341° North 158 182 9,100  Level Jacksonville Center
12:51PM 28.9264 -80.9664 349° North 159 183 9,200  Climbing Jacksonville Center
12:52PM 28.9622 -80.9822 339° North 156 180 9,200  Level Jacksonville Center
12:53PM 29.0103 -80.9861 356° North 161 185 9,200 -60 Level Jacksonville Center
12:54PM 29.0500 -80.9875 358° North 161 185 9,100  Descending Jacksonville Center
12:55PM 29.0936 -80.9869 North 162 186 9,200  Climbing Jacksonville Center
12:56PM 29.1458 -80.9811 North 161 185 9,200  Level Jacksonville Center
12:57PM 29.1897 -80.9850 356° North 161 185 9,200 -60 Level Jacksonville Center
12:58PM 29.2336 -80.9842 North 160 184 9,100  Descending Jacksonville Center
12:59PM 29.2772 -80.9856 358° North 157 181 9,200  Climbing Jacksonville Center
01:00PM 29.3233 -80.9894 356° North 156 180 9,200 -60 Level Jacksonville Center
01:01PM 29.3672 -81.0006 348° North 162 186 9,100 -60 Descending Jacksonville Center
01:02PM 29.4053 -81.0189 337° Northwest 159 183 9,100  Level Jacksonville Center
01:03PM 29.4472 -81.0419 334° Northwest 157 181 9,200  Climbing Jacksonville Center
01:04PM 29.4831 -81.0628 333° Northwest 158 182 9,100 -60 Descending Jacksonville Center
01:05PM 29.5208 -81.0811 337° Northwest 161 185 9,100  Level Jacksonville Center
01:06PM 29.5714 -81.1089 334° Northwest 157 181 9,200  Climbing Jacksonville Center
01:07PM 29.6133 -81.1319 334° Northwest 159 183 9,200 -60 Level Jacksonville Center
01:08PM 29.6639 -81.1572 337° Northwest 162 186 9,100  Descending Jacksonville Center
01:09PM 29.6933 -81.1711 338° Northwest 160 184 9,200  Climbing Jacksonville Center
01:10PM 29.7375 -81.1872 342° North 159 183 9,200  Level Jacksonville Center
01:11PM 29.7897 -81.2053 343° North 155 178 9,200 -120 Level Jacksonville Center
01:11PM 29.7939 -81.2078 332° Northwest 155 178 9,100 -120 Descending Jacksonville Center
01:12PM 29.8358 -81.2214 344° North 161 185 9,100  Level Jacksonville Center
01:13PM 29.8758 -81.2375 341° North 156 180 9,200  Climbing Jacksonville Center
01:14PM 29.9178 -81.2533 342° North 160 184 9,100  Descending Jacksonville Center
01:15PM 29.9639 -81.2719 341° North 160 184 9,200  Climbing Jacksonville Center
01:16PM 30.0039 -81.2881 341° North 160 184 9,100  Descending Jacksonville Center
01:17PM 30.0478 -81.3017 345° North 160 184 9,200  Climbing Jacksonville Center
01:18PM 30.0897 -81.3203 339° North 160 184 9,100  Descending Jacksonville Center
01:19PM 30.1381 -81.3433 338° Northwest 160 184 9,200  Climbing Jacksonville Center
01:20PM 30.1781 -81.3619 338° Northwest 157 181 9,100 -60 Descending Jacksonville Center
01:21PM 30.2200 -81.3781 342° North 157 181 9,100  Level Jacksonville Center
01:22PM 30.2597 -81.3967 338° Northwest 155 178 9,200  Climbing Jacksonville Center
01:23PM 30.3017 -81.4106 344° North 154 177 9,200 -60 Level Jacksonville Center
01:25PM 30.3481 -81.4339 337° Northwest 155 178 9,100  Descending Jacksonville Center
01:26PM 30.3900 -81.4478 344° North 158 182 9,200  Climbing Jacksonville Center
01:27PM 30.4339 -81.4614 345° North 158 182 9,100 -60 Descending Jacksonville Center
01:28PM 30.4675 -81.4922 322° Northwest 154 177 9,100  Level Jacksonville Center
01:29PM 30.5075 -81.5158 333° Northwest 155 178 9,200  Climbing Jacksonville Center
01:30PM 30.5453 -81.5322 340° North 162 186 9,100 -60 Descending Jacksonville Center
01:31PM 30.5872 -81.5606 330° Northwest 165 190 9,100  Level Jacksonville Center
01:32PM 30.6189 -81.5939 318° Northwest 155 178 9,100  Level Jacksonville Center
01:33PM 30.6547 -81.6247 323° Northwest 154 177 9,200  Climbing Jacksonville Center
01:34PM 30.6886 -81.6581 320° Northwest 156 180 9,100 -120 Descending Jacksonville Center
01:34PM 30.7097 -81.6797 319° Northwest 158 182 9,100  Level Jacksonville Center
01:35PM 30.7203 -81.6917 316° Northwest 157 181 9,100 60 Level Jacksonville Center
01:35PM 30.7433 -81.7106 325° Northwest 158 182 9,200  Climbing Jacksonville Center
01:36PM 30.7497 -81.7203 307° West 157 181 9,100 -120 Descending Jacksonville Center
01:36PM 30.7772 -81.7489 318° Northwest 158 182 9,100 60 Level Jacksonville Center
01:37PM 30.7856 -81.7536 334° Northwest 161 185 9,200  Climbing Jacksonville Center
01:37PM 30.8108 -81.7800 318° Northwest 163 188 9,100 -120 Descending Jacksonville Center
01:38PM 30.8425 -81.8111 320° Northwest 175 201 9,100  Level Jacksonville Center
01:39PM 30.8781 -81.8444 321° Northwest 175 201 9,200  Climbing Jacksonville Center
01:40PM 30.9119 -81.8781 320° Northwest 170 196 9,100 -120 Descending Jacksonville Center
01:41PM 30.9475 -81.9117 321° Northwest 170 196 9,000 -60 Descending Jacksonville Center
01:42PM 30.9792 -81.9450 318° Northwest 170 196 9,000  Level Jacksonville Center
01:43PM 31.0150 -81.9786 321° Northwest 165 190 9,100  Climbing Jacksonville Center
01:44PM 31.0506 -82.0122 321° Northwest 165 190 9,100  Level Jacksonville Center
01:45PM 31.0864 -82.0458 321° Northwest 165 190 9,100  Level Jacksonville Center
01:46PM 31.1200 -82.0819 317° Northwest 165 190 9,100  Level Jacksonville Center
01:47PM 31.1536 -82.1158 319° Northwest 165 190 9,100  Level Jacksonville Center
01:48PM 31.1892 -82.1494 321° Northwest 165 190 9,100 -60 Level Jacksonville Center
01:49PM 31.2228 -82.1831 319° Northwest 159 183 9,000  Descending Jacksonville Center
01:50PM 31.2564 -82.2122 323° Northwest 159 183 9,100  Climbing Jacksonville Center
01:51PM 31.2900 -82.2483 317° Northwest 159 183 9,000  Descending Jacksonville Center
01:52PM 31.3236 -82.2822 319° Northwest 159 183 9,100  Climbing Jacksonville Center
01:53PM 31.3572 -82.3158 320° Northwest 159 183 9,100  Level Jacksonville Center
01:54PM 31.3950 -82.3475 324° Northwest 159 183 9,100  Level Jacksonville Center
01:55PM 31.4286 -82.3836 317° Northwest 158 182 9,100  Level Jacksonville Center
01:56PM 31.4642 -82.4153 323° Northwest 158 182 9,100  Level Jacksonville Center
01:57PM 31.4978 -82.4517 317° Northwest 158 182 9,100  Level Jacksonville Center
01:58PM 31.5333 -82.4856 321° Northwest 158 182 9,100  Level Jacksonville Center
01:59PM 31.5689 -82.5194 321° Northwest 158 182 9,100  Level Jacksonville Center
02:00PM 31.6022 -82.5536 319° Northwest 163 188 9,100  Level Jacksonville Center
02:01PM 31.6358 -82.5900 317° Northwest 163 188 9,100  Level Jacksonville Center
02:02PM 31.6736 -82.6242 322° Northwest 163 188 9,100 -60 Level Jacksonville Center
02:03PM 31.7092 -82.6606 319° Northwest 163 188 9,000  Descending Jacksonville Center
02:04PM 31.7447 -82.6947 321° Northwest 163 188 9,100  Climbing Jacksonville Center
02:05PM 31.7803 -82.7314 319° Northwest 163 188 9,100 -60 Level Jacksonville Center
02:06PM 31.8158 -82.7656 321° Northwest 163 188 9,000 -60 Descending Jacksonville Center
02:07PM 31.8469 -82.7997 317° Northwest 158 182 9,000 -180 Level Jacksonville Center
02:08PM 31.8867 -82.8364 322° Northwest 163 188 8,700 -300 Descending Jacksonville Center
02:09PM 31.9244 -82.8756 319° Northwest 163 188 8,500 -300 Descending Jacksonville Center
02:10PM 31.9639 -82.9122 322° Northwest 168 193 8,200 -120 Descending Jacksonville Center
02:12PM 32.0500 -83.0000 319° Northwest 168 193 8,200  Level Atlanta TRACON
02:13PM 32.0833 -83.0333 320° Northwest 169 194 8,200 -60 Level Atlanta TRACON
02:14PM 32.1167 -83.0667 320° Northwest 170 196 8,100 -60 Descending Atlanta TRACON
02:15PM 32.1500 -83.1000 320° Northwest 170 196 8,100  Level Atlanta TRACON
02:16PM 32.1833 -83.1333 320° Northwest 168 193 8,100  Level Atlanta TRACON
02:17PM 32.2167 -83.1667 320° Northwest 171 197 8,100  Level Atlanta TRACON
02:18PM 32.2667 -83.2167 320° Northwest 169 194 8,100  Level Atlanta TRACON
02:19PM 32.3000 -83.2500 320° Northwest 169 194 8,100  Level Atlanta TRACON
02:20PM 32.3333 -83.2833 320° Northwest 171 197 8,100  Level Atlanta TRACON
02:21PM 32.3833 -83.3000 344° North 164 189 8,100  Level Atlanta TRACON
02:22PM 32.4167 -83.3167 337° Northwest 164 189 8,100  Level Atlanta TRACON
02:23PM 32.4667 -83.3333 344° North 162 186 8,100  Level Atlanta TRACON
02:24PM 32.5000 -83.3500 337° Northwest 164 189 8,100  Level Atlanta TRACON
02:25PM 32.5500 -83.3667 344° North 164 189 8,100  Level Atlanta TRACON
02:26PM 32.6000 -83.3833 344° North 165 190 8,100  Level Atlanta TRACON
02:27PM 32.6333 -83.3833 360° North 167 192 8,100  Level Atlanta TRACON
02:28PM 32.6833 -83.4000 344° North 167 192 8,100  Level Atlanta TRACON
02:29PM 32.7333 -83.4167 344° North 168 193 8,100  Level Atlanta TRACON
02:30PM 32.7667 -83.4333 337° Northwest 170 196 8,100  Level Atlanta TRACON
02:31PM 32.8167 -83.4500 344° North 170 196 8,100  Level Atlanta TRACON
02:32PM 32.8667 -83.4667 344° North 170 196 8,100  Level Atlanta TRACON
02:33PM 32.9000 -83.4833 337° Northwest 168 193 8,100  Level Atlanta TRACON
02:34PM 32.9500 -83.5000 344° North 169 194 8,100 -60 Level Atlanta TRACON
02:35PM 33.0000 -83.5167 344° North 168 193 8,000  Descending Atlanta TRACON
02:36PM 33.0333 -83.5333 337° Northwest 169 194 8,100  Climbing Atlanta TRACON
02:37PM 33.0833 -83.5500 344° North 170 196 8,100  Level Atlanta TRACON
02:38PM 33.1333 -83.5667 344° North 169 194 8,100  Level Atlanta TRACON
02:39PM 33.1833 -83.5833 344° North 171 197 8,100  Level Atlanta TRACON
02:40PM 33.2167 -83.6000 337° Northwest 172 198 8,100  Level Atlanta TRACON
02:41PM 33.2667 -83.6167 344° North 169 194 8,100  Level Atlanta TRACON
02:42PM 33.3167 -83.6333 344° North 171 197 8,100 -60 Level Atlanta TRACON
02:43PM 33.3500 -83.6667 320° Northwest 172 198 8,000 -60 Descending Atlanta TRACON
02:44PM 33.3833 -83.7000 320° Northwest 170 196 8,000 -300 Level Atlanta TRACON
02:45PM 33.4167 -83.7500 309° West 187 215 7,500 -480 Descending Atlanta TRACON
02:46PM 33.4667 -83.7833 331° Northwest 193 222 7,100 -480 Descending Atlanta TRACON
02:47PM 33.5000 -83.8333 309° West 193 222 6,600 -540 Descending Atlanta TRACON
02:48PM 33.5333 -83.8833 309° West 198 228 6,100 -720 Descending Atlanta TRACON
02:49PM 33.5667 -83.9333 309° West 193 222 5,200 -900 Descending Atlanta TRACON
02:50PM 33.6000 -83.9667 320° Northwest 181 208 4,400 -780 Descending Atlanta TRACON
02:51PM 33.6500 -84.0167 320° Northwest 186 214 3,700 -600 Descending Atlanta TRACON
02:52PM 33.6833 -84.0500 320° Northwest 177 204 3,200 -300 Descending Atlanta TRACON
02:53PM 33.7167 -84.1000 309° West 164 189 3,100 -60 Descending Atlanta TRACON
02:54PM 33.7333 -84.1333 301° West 157 181 3,100 -60 Level Atlanta TRACON
02:55PM 33.7667 -84.1667 320° Northwest 160 184 3,000 -300 Descending Atlanta TRACON
02:56PM 33.8000 -84.2167 309° West 168 193 2,600 -480 Descending Atlanta TRACON
02:57PM 33.8167 -84.2667 292° West 155 178 2,100 -360 Descending Atlanta TRACON
02:58PM 33.8333 -84.3000 301° West 120 138 1,900 -240 Descending Atlanta TRACON
03:00PM 33.8667 -84.3000 301° West  Level FlightAware Approximate
03:07PM 33.8756 -84.3020 301° West  Level Estimated
03:08PM 33.8756 -84.3020 301° West  Level Estimated